Time;durP1;ratioP1;P1;durP2;ratioP2;P2;SDS_P1;SDS_P2;PMS_P1;PMS_P2;Temp;Humidity;BMP_temperature;BMP_pressure;BME280_temperature;BME280_humidity;BME280_pressure;Samples;Min_cycle;Max_cycle;Signal;HPM_P1;HPM_P2
2023/07/26 00:01:08;;;;;;;6.88;1.45;;;;;;;14.01;100.00;101227.47;5050563;28;20033;-69
2023/07/26 00:03:33;;;;;;;3.58;1.60;;;;;;;13.97;100.00;101215.25;5051114;28;20065;-69
2023/07/26 00:06:00;;;;;;;1.73;1.55;;;;;;;13.96;100.00;101223.25;5041765;28;20068;-69
2023/07/26 00:08:26;;;;;;;6.72;1.77;;;;;;;13.98;100.00;101224.06;5051440;28;20396;-69
2023/07/26 00:10:51;;;;;;;1.77;1.33;;;;;;;13.96;100.00;101217.97;5050460;28;20104;-69
2023/07/26 00:13:17;;;;;;;2.75;1.50;;;;;;;13.95;100.00;101216.25;5051364;28;20405;-67
2023/07/26 00:15:42;;;;;;;1.45;1.35;;;;;;;13.95;100.00;101211.81;5049966;28;20492;-69
2023/07/26 00:18:08;;;;;;;3.58;1.80;;;;;;;13.96;100.00;101218.81;5050624;28;20033;-69
2023/07/26 00:20:33;;;;;;;1.80;1.42;;;;;;;13.93;100.00;101207.53;5049474;28;20636;-69
2023/07/26 00:22:59;;;;;;;7.43;1.67;;;;;;;13.92;100.00;101219.03;5051252;28;20366;-69
2023/07/26 00:25:24;;;;;;;2.97;1.75;;;;;;;13.85;100.00;101218.44;5049768;28;20397;-71
2023/07/26 00:27:49;;;;;;;4.63;1.45;;;;;;;13.77;100.00;101216.09;5051330;28;20036;-69
2023/07/26 00:30:15;;;;;;;4.40;1.90;;;;;;;13.71;100.00;101213.69;5049184;28;20102;-70
2023/07/26 00:32:40;;;;;;;5.30;1.80;;;;;;;13.64;100.00;101211.28;5049595;28;20100;-69
2023/07/26 00:35:06;;;;;;;3.45;1.73;;;;;;;13.57;100.00;101211.63;5050665;28;20033;-69
2023/07/26 00:37:31;;;;;;;2.92;1.65;;;;;;;13.50;100.00;101205.69;5050092;28;20405;-69
2023/07/26 00:39:57;;;;;;;2.90;1.52;;;;;;;13.49;100.00;101211.91;5048738;28;20036;-65
2023/07/26 00:42:22;;;;;;;6.95;1.80;;;;;;;13.44;100.00;101205.91;5056902;28;20178;-67
2023/07/26 00:44:48;;;;;;;4.03;2.35;;;;;;;13.46;100.00;101204.91;5090595;28;20040;-69
2023/07/26 00:47:13;;;;;;;5.07;2.25;;;;;;;13.42;100.00;101210.44;5089443;28;20031;-68
2023/07/26 00:49:39;;;;;;;4.82;2.15;;;;;;;13.43;100.00;101207.72;5090221;28;20035;-68
2023/07/26 00:52:04;;;;;;;6.50;2.60;;;;;;;13.44;100.00;101209.44;5088200;28;20026;-69
2023/07/26 00:54:30;;;;;;;5.10;2.30;;;;;;;13.49;100.00;101211.91;5071847;28;20541;-69
2023/07/26 00:56:55;;;;;;;6.03;2.65;;;;;;;13.49;100.00;101210.13;5089243;28;20024;-68
2023/07/26 00:59:21;;;;;;;5.97;2.70;;;;;;;13.45;100.00;101205.00;5089966;28;20035;-71
2023/07/26 01:01:59;;;;;;;2.88;2.30;;;;;;;13.43;100.00;101204.19;5087917;28;20574;-70
2023/07/26 01:04:25;;;;;;;4.20;2.55;;;;;;;13.37;100.00;101206.16;5089923;28;20082;-69
2023/07/26 01:07:01;;;;;;;6.55;2.55;;;;;;;13.31;100.00;101206.44;5090154;28;20044;-67
2023/07/26 01:09:59;;;;;;;3.25;2.45;;;;;;;13.24;100.00;101199.63;5087903;28;20023;-69
2023/07/26 01:12:32;;;;;;;4.22;2.25;;;;;;;13.19;100.00;101206.91;5068050;28;20472;-70
2023/07/26 01:15:03;;;;;;;3.15;2.40;;;;;;;13.12;100.00;101203.59;5088266;28;20161;-67
2023/07/26 01:17:29;;;;;;;4.20;2.22;;;;;;;13.06;100.00;101196.78;5087456;28;20036;-68
2023/07/26 01:19:56;;;;;;;2.60;2.40;;;;;;;13.04;100.00;101206.56;5087461;28;20023;-69
2023/07/26 01:22:21;;;;;;;4.88;2.55;;;;;;;13.04;100.00;101195.13;5090338;28;20032;-69
2023/07/26 01:24:46;;;;;;;6.25;2.80;;;;;;;13.05;100.00;101199.47;5086320;28;20040;-70
2023/07/26 01:27:12;;;;;;;4.03;2.90;;;;;;;13.00;100.00;101197.00;5069519;28;20036;-69
2023/07/26 01:29:37;;;;;;;4.43;2.70;;;;;;;12.98;100.00;101197.06;5068414;28;20060;-68
2023/07/26 01:32:03;;;;;;;4.60;2.92;;;;;;;12.98;100.00;101198.88;5088365;28;20120;-69
2023/07/26 01:34:29;;;;;;;3.60;3.05;;;;;;;12.95;100.00;101193.69;5088926;28;20020;-67
2023/07/26 01:36:55;;;;;;;4.25;2.83;;;;;;;12.91;100.00;101192.94;5089423;28;20034;-68
2023/07/26 01:39:20;;;;;;;4.35;3.22;;;;;;;12.89;100.00;101197.44;5088362;28;20028;-68
2023/07/26 01:41:47;;;;;;;8.70;3.38;;;;;;;12.88;100.00;101193.94;5087598;28;20039;-68
2023/07/26 01:44:13;;;;;;;6.05;3.10;;;;;;;12.87;100.00;101200.16;5089121;28;20062;-69
2023/07/26 01:46:38;;;;;;;4.53;3.38;;;;;;;12.93;100.00;101195.53;5074753;28;20025;-69
2023/07/26 01:49:04;;;;;;;4.25;3.38;;;;;;;12.95;100.00;101188.41;5068782;28;20107;-69
2023/07/26 01:51:29;;;;;;;5.80;3.47;;;;;;;12.96;100.00;101204.22;5078344;28;20028;-68
2023/07/26 01:53:55;;;;;;;4.72;3.67;;;;;;;12.96;100.00;101188.34;5088957;28;20531;-68
2023/07/26 01:56:20;;;;;;;4.75;3.50;;;;;;;12.95;100.00;101201.63;5088825;28;20051;-69
2023/07/26 01:58:45;;;;;;;4.13;3.70;;;;;;;12.93;100.00;101198.16;5089889;28;20031;-69
2023/07/26 02:01:11;;;;;;;7.60;4.28;;;;;;;12.92;100.00;101197.31;5086928;28;20027;-70
2023/07/26 02:03:36;;;;;;;4.53;3.70;;;;;;;12.89;100.00;101200.94;5089566;28;20028;-68
2023/07/26 02:06:02;;;;;;;8.65;3.60;;;;;;;12.87;100.00;101200.16;5089439;28;20448;-69
2023/07/26 02:08:27;;;;;;;5.13;3.90;;;;;;;12.86;100.00;101193.09;5089669;28;20430;-69
2023/07/26 02:10:52;;;;;;;7.70;4.07;;;;;;;12.85;100.00;101199.31;5089474;28;20529;-65
2023/07/26 02:13:18;;;;;;;4.78;3.53;;;;;;;12.87;100.00;101193.97;5088865;28;20035;-69
2023/07/26 02:15:43;;;;;;;3.83;3.42;;;;;;;12.87;100.00;101192.22;5088285;28;20081;-70
2023/07/26 02:18:08;;;;;;;4.72;3.55;;;;;;;12.82;100.00;101194.16;5087204;28;20036;-69
2023/07/26 02:20:34;;;;;;;5.57;3.40;;;;;;;12.77;100.00;101198.78;5088277;28;20103;-69
2023/07/26 02:23:01;;;;;;;4.55;3.70;;;;;;;12.75;100.00;101188.25;5087067;28;20085;-69
2023/07/26 02:25:26;;;;;;;7.15;3.65;;;;;;;12.74;100.00;101185.66;5088698;28;20414;-68
2023/07/26 02:27:52;;;;;;;5.80;3.35;;;;;;;12.71;100.00;101189.28;5084462;28;20032;-70
2023/07/26 02:30:17;;;;;;;4.88;3.60;;;;;;;12.73;100.00;101194.50;5069148;28;20044;-69
2023/07/26 02:32:42;;;;;;;5.32;3.78;;;;;;;12.73;100.00;101189.19;5067729;28;20103;-71
2023/07/26 02:35:08;;;;;;;5.28;3.58;;;;;;;12.73;100.00;101189.19;5089079;28;20020;-69
2023/07/26 02:37:34;;;;;;;6.35;3.80;;;;;;;12.75;100.00;101190.91;5088409;28;20024;-70
2023/07/26 02:39:59;;;;;;;5.25;3.72;;;;;;;12.78;100.00;101189.91;5087132;28;20067;-70
2023/07/26 02:42:26;;;;;;;4.18;3.78;;;;;;;12.78;100.00;101181.97;5087718;28;20048;-67
2023/07/26 02:44:53;;;;;;;8.25;3.72;;;;;;;12.76;100.00;101189.09;5088646;28;20024;-69
2023/07/26 02:47:18;;;;;;;5.97;3.70;;;;;;;12.76;100.00;101189.09;5087759;28;20024;-69
2023/07/26 02:49:44;;;;;;;3.78;3.22;;;;;;;12.76;100.00;101191.72;5087628;28;20050;-71
2023/07/26 02:52:09;;;;;;;5.25;3.40;;;;;;;12.77;100.00;101194.31;5088506;28;20373;-69
2023/07/26 02:54:34;;;;;;;4.65;3.40;;;;;;;12.82;100.00;101183.56;5087610;28;20028;-70
2023/07/26 02:57:00;;;;;;;6.07;3.70;;;;;;;12.89;100.00;101185.06;5088359;28;20460;-68
2023/07/26 02:59:25;;;;;;;3.83;3.17;;;;;;;12.98;100.00;101183.84;5087413;28;20025;-70
2023/07/26 03:01:50;;;;;;;5.28;3.80;;;;;;;13.08;100.00;101187.00;5088023;28;20104;-68
2023/07/26 03:04:16;;;;;;;7.47;3.58;;;;;;;13.14;100.00;101186.78;5087564;28;20051;-70
2023/07/26 03:06:41;;;;;;;5.32;3.45;;;;;;;13.23;100.00;101179.38;5090635;28;20028;-67
2023/07/26 03:09:06;;;;;;;5.60;3.25;;;;;;;13.34;100.00;101184.25;5091616;28;20028;-68
2023/07/26 03:11:32;;;;;;;6.25;3.40;;;;;;;13.42;100.00;101187.44;5092316;28;20533;-69
2023/07/26 03:13:57;;;;;;;8.45;3.63;;;;;;;13.51;100.00;101188.88;5091372;28;20452;-69
2023/07/26 03:16:23;;;;;;;4.47;3.10;;;;;;;13.54;100.00;101182.63;5090812;28;20534;-68
2023/07/26 03:18:48;;;;;;;4.75;3.25;;;;;;;13.57;100.00;101191.28;5091154;28;20024;-68
2023/07/26 03:21:13;;;;;;;8.30;3.22;;;;;;;13.63;100.00;101195.47;5072624;28;20059;-64
2023/07/26 03:23:39;;;;;;;5.65;3.20;;;;;;;13.66;100.00;101192.69;5071170;28;20027;-68
2023/07/26 03:26:04;;;;;;;5.85;3.08;;;;;;;13.70;100.00;101191.63;5089625;28;20084;-68
2023/07/26 03:28:30;;;;;;;5.20;3.33;;;;;;;13.74;100.00;101195.91;5073005;28;20032;-69
2023/07/26 03:30:55;;;;;;;3.03;2.72;;;;;;;13.75;100.00;101199.41;5090607;28;20031;-68
2023/07/26 03:33:21;;;;;;;2.90;2.58;;;;;;;13.85;100.00;101200.72;5091877;28;20063;-66
2023/07/26 03:35:46;;;;;;;6.82;2.90;;;;;;;13.90;100.00;101196.13;5090860;28;20032;-69
2023/07/26 03:38:12;;;;;;;6.30;3.20;;;;;;;13.95;100.00;101195.06;5092338;28;20028;-69
2023/07/26 03:40:39;;;;;;;3.80;3.00;;;;;;;13.97;100.00;101190.56;5091140;28;20031;-68
2023/07/26 03:43:04;;;;;;;3.83;2.70;;;;;;;14.01;100.00;101190.38;5091717;28;20119;-70
2023/07/26 03:45:30;;;;;;;6.13;2.97;;;;;;;14.08;100.00;101190.06;5089448;28;20494;-70
2023/07/26 03:47:55;;;;;;;3.88;2.80;;;;;;;14.08;100.00;101184.78;5091078;28;20169;-68
2023/07/26 03:50:21;;;;;;;3.80;2.60;;;;;;;14.15;100.00;101187.09;5087389;28;20035;-68
2023/07/26 03:52:46;;;;;;;4.93;3.00;;;;;;;14.14;100.00;101180.09;5080380;28;20066;-69
2023/07/26 03:55:12;;;;;;;3.25;2.95;;;;;;;14.18;100.00;101185.25;5088164;28;20434;-68
2023/07/26 03:57:37;;;;;;;6.25;3.05;;;;;;;14.21;100.00;101180.66;5088716;28;20024;-68
2023/07/26 04:00:04;;;;;;;4.00;2.65;;;;;;;14.19;100.00;101171.94;5089739;28;20372;-67
2023/07/26 04:02:29;;;;;;;4.95;2.88;;;;;;;14.20;100.00;101168.34;5090157;28;20028;-69
2023/07/26 04:04:55;;;;;;;4.68;2.65;;;;;;;14.25;100.00;101176.09;5091004;28;20028;-69
2023/07/26 04:07:21;;;;;;;8.60;2.72;;;;;;;14.30;100.00;101173.25;5089968;28;20426;-66
2023/07/26 04:09:46;;;;;;;4.40;3.03;;;;;;;14.33;100.00;101170.47;5090990;28;20024;-69
2023/07/26 04:12:11;;;;;;;4.25;3.13;;;;;;;14.35;100.00;101166.81;5091640;28;20086;-68
2023/07/26 04:14:37;;;;;;;5.78;3.25;;;;;;;14.35;100.00;101161.50;5091064;28;20402;-70
2023/07/26 04:17:02;;;;;;;3.67;3.00;;;;;;;14.38;100.00;101155.19;5089822;28;20388;-68
2023/07/26 04:19:28;;;;;;;5.82;3.30;;;;;;;14.40;100.00;101158.66;5089823;28;20115;-70
2023/07/26 04:21:53;;;;;;;4.05;3.03;;;;;;;14.42;100.00;101161.25;5090634;28;20027;-68
2023/07/26 04:24:18;;;;;;;4.68;2.90;;;;;;;14.41;100.00;101165.66;5089978;28;20118;-69
2023/07/26 04:26:44;;;;;;;5.85;3.30;;;;;;;14.43;100.00;101160.31;5090834;28;20086;-67
2023/07/26 04:29:09;;;;;;;5.30;3.30;;;;;;;14.44;100.00;101164.66;5091081;28;20621;-66
2023/07/26 04:31:34;;;;;;;6.72;3.50;;;;;;;14.50;100.00;101169.69;5089728;28;20044;-67
2023/07/26 04:34:00;;;;;;;4.85;3.63;;;;;;;14.54;100.00;101173.91;5091342;28;20085;-68
2023/07/26 04:36:25;;;;;;;4.78;3.75;;;;;;;14.52;100.00;101167.84;5090870;28;20016;-66
2023/07/26 04:38:50;;;;;;;8.35;3.83;;;;;;;14.56;100.00;101168.56;5091444;28;20055;-67
2023/07/26 04:41:16;;;;;;;6.18;3.78;;;;;;;14.61;100.00;101174.53;5090964;28;20016;-67
2023/07/26 04:43:41;;;;;;;7.07;4.22;;;;;;;14.62;100.00;101171.81;5090313;28;20607;-67
2023/07/26 04:46:06;;;;;;;6.20;3.88;;;;;;;14.71;100.00;101167.00;5089632;28;20474;-66
2023/07/26 04:48:31;;;;;;;6.30;4.20;;;;;;;14.76;100.00;101172.97;5090936;28;20036;-66
2023/07/26 04:50:57;;;;;;;8.75;4.30;;;;;;;14.79;100.00;101175.50;5090401;28;20035;-69
2023/07/26 04:53:22;;;;;;;7.45;3.70;;;;;;;14.82;100.00;101177.16;5090174;28;20028;-67
2023/07/26 04:55:49;;;;;;;5.35;3.83;;;;;;;14.76;100.00;101181.78;5091210;28;20062;-67
2023/07/26 04:58:15;;;;;;;6.82;4.03;;;;;;;14.80;100.00;101184.31;5090564;28;20444;-67
2023/07/26 05:00:41;;;;;;;8.98;3.72;;;;;;;14.83;100.00;101182.38;5088627;28;20047;-69
2023/07/26 05:03:07;;;;;;;6.32;4.15;;;;;;;14.87;100.00;101178.66;5090745;28;20027;-68
2023/07/26 05:05:36;;;;;;;6.38;4.20;;;;;;;14.87;100.00;101177.81;5090386;28;20036;-65
2023/07/26 05:08:02;;;;;;;4.60;3.45;;;;;;;14.90;100.00;101173.19;5090132;28;20024;-68
2023/07/26 05:10:28;;;;;;;4.78;3.70;;;;;;;14.93;100.00;101166.88;5088618;28;20020;-67
2023/07/26 05:12:54;;;;;;;4.28;3.35;;;;;;;15.04;100.00;101166.38;5090252;28;20028;-70
2023/07/26 05:15:20;;;;;;;4.95;3.63;;;;;;;15.09;100.00;101166.16;5088455;28;20573;-65
2023/07/26 05:17:45;;;;;;;7.35;4.10;;;;;;;15.09;100.00;101155.56;5089888;28;20023;-69
2023/07/26 05:20:11;;;;;;;11.88;4.25;;;;;;;15.10;100.00;101155.47;5088414;28;20024;-67
2023/07/26 05:22:37;;;;;;;6.93;4.15;;;;;;;15.10;100.00;101159.91;5089850;28;20079;-67
2023/07/26 05:25:02;;;;;;;10.40;4.68;;;;;;;15.08;100.00;101172.41;5090081;28;20454;-67
2023/07/26 05:27:28;;;;;;;6.28;4.50;;;;;;;15.11;100.00;101174.94;5090156;28;20085;-68
2023/07/26 05:29:53;;;;;;;5.80;4.05;;;;;;;15.18;100.00;101208.19;5088867;28;20032;-70
2023/07/26 05:32:19;;;;;;;7.85;4.63;;;;;;;15.21;100.00;101223.09;5089348;28;20028;-67
2023/07/26 05:34:44;;;;;;;9.73;5.07;;;;;;;15.23;100.00;101223.91;5087081;28;20036;-67
2023/07/26 05:37:10;;;;;;;15.38;5.55;;;;;;;15.26;100.00;101223.75;5088721;28;20039;-71
2023/07/26 05:39:35;;;;;;;11.98;6.00;;;;;;;15.26;100.00;101224.59;5089720;28;20032;-68
2023/07/26 05:42:00;;;;;;;7.55;5.60;;;;;;;15.33;100.00;101206.59;5088868;28;20051;-70
2023/07/26 05:44:26;;;;;;;12.05;6.28;;;;;;;15.34;100.00;101224.25;5089368;28;20044;-66
2023/07/26 05:46:51;;;;;;;10.18;6.22;;;;;;;15.18;100.00;101241.84;5088995;28;20023;-68
2023/07/26 05:49:16;;;;;;;13.43;5.45;;;;;;;14.82;100.00;101247.00;5087657;28;20032;-68
2023/07/26 05:51:42;;;;;;;9.90;4.88;;;;;;;15.02;100.00;101255.84;5089227;28;20028;-66
2023/07/26 05:54:07;;;;;;;9.73;4.43;;;;;;;14.79;100.00;101260.38;5087572;28;20024;-68
2023/07/26 05:56:32;;;;;;;7.80;4.25;;;;;;;14.81;100.00;101253.19;5089355;28;20103;-68
2023/07/26 05:58:58;;;;;;;5.93;3.95;;;;;;;14.78;100.00;101254.22;5087282;28;20028;-69
2023/07/26 06:01:23;;;;;;;8.25;4.18;;;;;;;14.83;100.00;101255.78;5087569;28;20035;-67
2023/07/26 06:03:49;;;;;;;6.45;4.43;;;;;;;14.83;100.00;101264.63;5088109;28;20039;-69
2023/07/26 06:06:15;;;;;;;8.90;4.22;;;;;;;14.85;100.00;101267.19;5086822;28;20068;-68
2023/07/26 06:08:40;;;;;;;9.70;5.05;;;;;;;14.83;100.00;101256.66;5087376;28;20074;-66
2023/07/26 06:11:06;;;;;;;8.30;4.05;;;;;;;14.83;100.00;101264.63;5088932;28;20032;-69
2023/07/26 06:13:31;;;;;;;5.57;4.07;;;;;;;14.84;100.00;101260.19;5089356;28;20059;-70
2023/07/26 06:15:56;;;;;;;7.63;4.57;;;;;;;14.91;100.00;101269.59;5085479;28;20519;-64
2023/07/26 06:18:22;;;;;;;10.85;4.28;;;;;;;15.01;100.00;101272.66;5088368;28;20024;-67
2023/07/26 06:20:48;;;;;;;7.43;4.72;;;;;;;15.05;100.00;101265.44;5088955;28;20688;-68
2023/07/26 06:23:13;;;;;;;11.77;4.63;;;;;;;15.18;100.00;101265.72;5088173;28;20028;-68
2023/07/26 06:25:38;;;;;;;11.32;4.50;;;;;;;15.38;100.00;101262.97;5075117;28;20040;-67
2023/07/26 06:28:04;;;;;;;6.93;4.20;;;;;;;15.49;100.00;101265.13;5069689;28;20108;-69
2023/07/26 06:30:30;;;;;;;7.40;4.55;;;;;;;15.63;100.00;101263.59;5088511;28;20396;-70
2023/07/26 06:32:55;;;;;;;6.22;3.95;;;;;;;15.83;100.00;101262.63;5087951;28;20129;-69
2023/07/26 06:35:21;;;;;;;7.35;4.45;;;;;;;15.89;100.00;101266.75;5087608;28;20527;-70
2023/07/26 06:37:46;;;;;;;5.20;3.85;;;;;;;16.08;100.00;101264.09;5088647;28;20028;-70
2023/07/26 06:40:12;;;;;;;5.25;3.85;;;;;;;16.24;100.00;101274.81;5087451;28;20077;-69
2023/07/26 06:42:37;;;;;;;7.05;4.22;;;;;;;16.42;100.00;101277.47;5086494;28;20157;-70
2023/07/26 06:45:03;;;;;;;8.57;3.92;;;;;;;16.66;100.00;101275.31;5088204;28;20488;-70
2023/07/26 06:47:28;;;;;;;5.20;4.10;;;;;;;16.83;100.00;101284.22;5084092;28;20480;-65
2023/07/26 06:49:54;;;;;;;7.40;3.97;;;;;;;17.01;100.00;101277.00;5088243;28;20031;-68
2023/07/26 06:52:19;;;;;;;8.02;3.90;;;;;;;17.20;100.00;101276.06;5087666;28;20101;-70
2023/07/26 06:54:45;;;;;;;5.70;3.30;;;;;;;17.54;100.00;101279.50;5086839;28;20417;-69
2023/07/26 06:57:10;;;;;;;6.15;3.55;;;;;;;17.78;100.00;101272.84;5086762;28;20036;-66
2023/07/26 06:59:36;;;;;;;8.02;3.40;;;;;;;18.05;100.00;101272.19;5087435;28;20051;-69
2023/07/26 07:02:02;;;;;;;3.15;2.83;;;;;;;18.24;100.00;101271.13;5087248;28;20453;-69
2023/07/26 07:04:27;;;;;;;6.65;3.08;;;;;;;18.39;100.00;101270.19;5082685;28;20123;-72
2023/07/26 07:06:52;;;;;;;7.28;3.08;;;;;;;18.56;100.00;101273.66;5088004;28;20107;-64
2023/07/26 07:09:18;;;;;;;6.10;3.38;;;;;;;18.59;100.00;101267.25;5085389;28;20123;-71
2023/07/26 07:11:43;;;;;;;6.03;3.33;;;;;;;18.42;100.00;101280.69;5088489;28;20176;-71
2023/07/26 07:14:09;;;;;;;6.85;3.50;;;;;;;18.30;100.00;101284.06;5087646;28;20024;-69
2023/07/26 07:16:34;;;;;;;4.80;3.13;;;;;;;17.97;100.00;101279.78;5088025;28;20028;-66
2023/07/26 07:18:59;;;;;;;6.35;3.08;;;;;;;17.89;100.00;101283.75;5087112;28;20027;-69
2023/07/26 07:21:25;;;;;;;6.60;3.53;;;;;;;17.84;100.00;101285.81;5088015;28;20095;-69
2023/07/26 07:23:50;;;;;;;7.10;3.25;;;;;;;17.73;100.00;101281.09;5086704;28;20024;-67
2023/07/26 07:26:17;;;;;;;7.53;3.58;;;;;;;17.75;100.00;101275.69;5088168;28;20024;-69
2023/07/26 07:28:42;;;;;;;7.18;3.75;;;;;;;17.80;100.00;101295.81;5084729;28;20058;-69
2023/07/26 07:31:07;;;;;;;8.00;3.78;;;;;;;17.91;100.00;101297.00;5087342;28;20051;-71
2023/07/26 07:33:33;;;;;;;7.78;2.92;;;;;;;18.02;100.00;101291.00;5086730;28;20064;-68
2023/07/26 07:35:58;;;;;;;3.97;3.05;;;;;;;18.08;100.00;101308.47;5088280;28;20102;-69
2023/07/26 07:38:24;;;;;;;5.40;2.70;;;;;;;18.15;100.00;101305.38;5083883;28;20036;-67
2023/07/26 07:40:49;;;;;;;5.10;3.03;;;;;;;18.26;100.00;101298.56;5084920;28;20028;-70
2023/07/26 07:43:15;;;;;;;5.55;3.08;;;;;;;18.34;100.00;101304.31;5087318;28;20126;-68
2023/07/26 07:45:40;;;;;;;7.55;3.20;;;;;;;18.34;100.00;101303.44;5083661;28;20104;-69
2023/07/26 07:48:06;;;;;;;6.90;3.30;;;;;;;18.37;100.00;101298.78;5087725;28;20070;-70
2023/07/26 07:50:31;;;;;;;4.55;3.13;;;;;;;18.59;100.00;101294.81;5087106;28;20035;-71
2023/07/26 07:52:57;;;;;;;4.68;3.13;;;;;;;18.85;100.00;101307.50;5088525;28;20024;-70
2023/07/26 07:55:22;;;;;;;4.75;2.90;;;;;;;18.97;100.00;101292.53;5090226;28;20039;-67
2023/07/26 07:57:48;;;;;;;7.40;3.40;;;;;;;18.99;100.00;101287.97;5091613;28;20405;-66
2023/07/26 08:00:13;;;;;;;7.10;3.08;;;;;;;19.14;100.00;101297.72;5088402;28;20036;-67
2023/07/26 08:02:39;;;;;;;4.60;2.47;;;;;;;19.29;100.00;101298.56;5088593;28;20012;-69
2023/07/26 08:05:04;;;;;;;5.80;2.67;;;;;;;19.40;99.70;101292.53;5090051;28;20069;-68
2023/07/26 08:07:30;;;;;;;5.93;2.50;;;;;;;19.35;100.00;101299.13;5080527;28;20028;-67
2023/07/26 08:09:55;;;;;;;4.82;2.45;;;;;;;19.36;100.00;101304.38;5090853;28;20096;-71
2023/07/26 08:12:20;;;;;;;7.05;2.53;;;;;;;19.12;100.00;101309.44;5089851;28;20020;-71
2023/07/26 08:14:52;;;;;;;4.22;2.40;;;;;;;18.90;100.00;101303.59;5089971;28;20020;-69
2023/07/26 08:17:17;;;;;;;6.03;2.85;;;;;;;18.73;100.00;101310.00;5088126;28;20028;-66
2023/07/26 08:19:44;;;;;;;7.00;2.30;;;;;;;18.64;100.00;101295.41;5090924;28;20020;-71
2023/07/26 08:22:09;;;;;;;3.95;2.60;;;;;;;18.84;100.00;101303.13;5089268;28;20417;-65
2023/07/26 08:24:34;;;;;;;6.13;2.42;;;;;;;18.88;100.00;101307.31;5090892;28;20074;-66
2023/07/26 08:27:00;;;;;;;5.85;2.15;;;;;;;18.99;100.00;101310.19;5089991;28;20054;-68
2023/07/26 08:29:25;;;;;;;4.18;2.30;;;;;;;19.01;99.96;101307.41;5089560;28;20021;-68
2023/07/26 08:31:50;;;;;;;4.00;2.50;;;;;;;19.33;100.00;101325.94;5088836;28;20024;-69
2023/07/26 08:34:16;;;;;;;2.85;2.38;;;;;;;19.64;97.35;101315.09;5089196;28;20012;-69
2023/07/26 08:36:41;;;;;;;7.55;2.45;;;;;;;19.77;96.68;101326.69;5088279;28;20148;-70
2023/07/26 08:39:06;;;;;;;4.90;2.42;;;;;;;19.93;97.15;101320.34;5088899;28;20099;-67
2023/07/26 08:41:32;;;;;;;4.00;2.35;;;;;;;19.98;89.42;101322.72;5089258;28;20127;-69
2023/07/26 08:43:59;;;;;;;3.47;2.13;;;;;;;19.72;91.28;101317.25;5084652;28;20052;-66
2023/07/26 08:46:27;;;;;;;4.45;2.30;;;;;;;19.60;93.94;101321.59;5088388;28;20048;-64
2023/07/26 08:48:52;;;;;;;4.80;2.08;;;;;;;19.54;94.20;101320.19;5086770;28;20028;-67
2023/07/26 08:51:20;;;;;;;3.20;1.70;;;;;;;19.75;94.81;101319.72;5080762;28;20077;-69
2023/07/26 08:53:46;;;;;;;2.33;1.90;;;;;;;19.82;93.30;101319.25;5088041;28;20036;-71
2023/07/26 08:56:12;;;;;;;3.42;2.00;;;;;;;19.87;89.85;101315.41;5090006;28;20066;-69
2023/07/26 08:58:37;;;;;;;5.95;2.00;;;;;;;19.72;90.56;101323.47;5067840;28;20020;-65
2023/07/26 09:01:03;;;;;;;2.95;1.60;;;;;;;19.70;92.81;101320.03;5089362;28;20031;-71
2023/07/26 09:03:28;;;;;;;5.32;2.30;;;;;;;19.68;90.40;101316.59;5087106;28;20115;-70
2023/07/26 09:06:06;;;;;;;4.13;2.17;;;;;;;19.64;92.42;101310.59;5090380;28;20460;-68
2023/07/26 09:08:32;;;;;;;4.70;2.13;;;;;;;19.66;94.00;101316.69;5089632;28;20753;-71
2023/07/26 09:10:57;;;;;;;3.42;2.17;;;;;;;19.60;93.74;101327.81;5090215;28;20032;-70
2023/07/26 09:13:23;;;;;;;3.22;2.10;;;;;;;19.51;93.26;101321.22;5090961;28;20086;-66
2023/07/26 09:15:50;;;;;;;4.05;2.22;;;;;;;19.45;90.95;101317.13;5086266;28;20445;-73
2023/07/26 09:18:16;;;;;;;7.35;2.50;;;;;;;19.61;90.50;101316.16;5089403;28;20085;-70
2023/07/26 09:20:41;;;;;;;3.65;2.10;;;;;;;19.92;90.02;101324.81;5089130;28;20519;-72
2023/07/26 09:23:08;;;;;;;2.75;2.30;;;;;;;20.20;89.45;101317.66;5088327;28;20471;-73
2023/07/26 09:25:42;;;;;;;2.65;2.30;;;;;;;20.42;88.23;101320.69;5088145;28;20077;-73
2023/07/26 09:28:13;;;;;;;4.05;2.10;;;;;;;20.34;86.79;101315.84;5085178;28;20082;-73
2023/07/26 09:30:45;;;;;;;3.22;2.10;;;;;;;20.03;89.04;101324.16;5088843;28;20039;-72
2023/07/26 09:33:11;;;;;;;4.65;2.28;;;;;;;20.14;89.10;101323.41;5087967;28;20089;-69
2023/07/26 09:35:43;;;;;;;3.45;2.20;;;;;;;20.04;88.86;101328.53;5091049;28;20020;-74
2023/07/26 09:38:38;;;;;;;3.03;1.98;;;;;;;19.92;88.39;101323.94;5085805;28;20028;-72
2023/07/26 09:41:21;;;;;;;3.65;2.45;;;;;;;19.99;88.94;101324.41;5070483;28;20068;-72
2023/07/26 09:43:46;;;;;;;6.75;2.10;;;;;;;20.25;89.00;101319.16;5086843;28;20051;-73
2023/07/26 09:46:14;;;;;;;2.40;2.08;;;;;;;20.55;87.44;101324.25;5088772;28;20954;-72
2023/07/26 09:49:06;;;;;;;4.85;2.30;;;;;;;20.27;85.27;101346.69;5088312;28;20040;-73
2023/07/26 09:51:32;;;;;;;3.13;2.28;;;;;;;20.08;85.58;101321.16;5085606;28;20040;-75
2023/07/26 09:53:58;;;;;;;4.78;2.50;;;;;;;20.06;85.98;101341.81;5087442;28;20077;-69
2023/07/26 09:56:24;;;;;;;6.88;2.60;;;;;;;20.23;87.42;101326.44;5088198;28;20031;-74
2023/07/26 09:58:50;;;;;;;3.88;2.50;;;;;;;20.52;86.56;101331.63;5087828;28;20115;-65
2023/07/26 10:01:17;;;;;;;6.93;2.60;;;;;;;20.83;84.91;101324.16;5088191;28;20024;-72
2023/07/26 10:03:46;;;;;;;4.75;2.60;;;;;;;20.86;84.52;101334.63;5084614;28;20047;-73
2023/07/26 10:06:11;;;;;;;4.63;2.15;;;;;;;20.71;84.49;101342.78;5067975;28;20125;-72
2023/07/26 10:08:37;;;;;;;7.68;2.40;;;;;;;20.56;83.05;101330.47;5078347;28;20536;-69
2023/07/26 10:11:04;;;;;;;4.30;2.58;;;;;;;20.74;81.79;101336.34;5070746;28;20034;-73
2023/07/26 10:13:30;;;;;;;4.75;1.90;;;;;;;20.46;80.69;101330.22;5087865;28;20044;-72
2023/07/26 10:15:56;;;;;;;3.53;2.25;;;;;;;20.42;80.19;101334.94;5086865;28;20052;-73
2023/07/26 10:18:25;;;;;;;9.82;2.30;;;;;;;20.53;81.58;101333.34;5086812;28;20111;-69
2023/07/26 10:20:51;;;;;;;;;;;;;;;20.54;80.17;101341.28;5069483;28;20037;-71
2023/07/26 10:23:16;;;;;;;2.83;2.37;;;;;;;20.90;78.75;101330.81;5075357;28;19923;-72
2023/07/26 10:25:42;;;;;;;5.07;2.45;;;;;;;21.21;78.04;101328.66;5084068;28;21114;-70
2023/07/26 10:28:08;;;;;;;6.07;2.58;;;;;;;21.37;78.78;101337.41;5088017;28;20028;-70
2023/07/26 10:30:34;;;;;;;3.42;2.53;;;;;;;21.30;78.81;101337.84;5073413;28;20526;-72
2023/07/26 10:32:59;;;;;;;5.28;2.38;;;;;;;21.02;81.18;101347.00;5068935;28;20029;-70
2023/07/26 10:35:28;;;;;;;4.20;2.25;;;;;;;21.01;79.42;101342.59;5077582;28;20031;-67
2023/07/26 10:37:57;;;;;;;8.23;2.38;;;;;;;21.31;79.96;101333.34;5087448;28;20484;-65
2023/07/26 10:40:39;;;;;;;4.18;2.08;;;;;;;21.25;78.87;101334.63;5086808;28;20021;-68
2023/07/26 10:43:19;;;;;;;6.72;2.58;;;;;;;21.46;80.08;101326.84;5086565;28;20480;-73
2023/07/26 10:45:48;;;;;;;5.22;2.40;;;;;;;21.96;74.71;101335.81;5086033;28;20072;-74
2023/07/26 10:48:20;;;;;;;3.42;2.10;;;;;;;22.19;75.81;101354.72;5085970;28;20023;-73
2023/07/26 10:50:45;;;;;;;3.38;2.20;;;;;;;21.76;75.44;101330.09;5083862;28;20032;-74
2023/07/26 10:53:31;;;;;;;6.15;2.47;;;;;;;21.53;77.80;101345.19;5087787;28;20025;-71
2023/07/26 10:56:24;;;;;;;4.57;2.75;;;;;;;21.45;79.57;101345.72;5076804;28;20111;-66
2023/07/26 10:58:57;;;;;;;5.47;2.47;;;;;;;21.32;79.23;101372.56;5086027;28;20488;-71
2023/07/26 11:01:32;;;;;;;7.38;2.70;;;;;;;21.00;79.38;101356.94;5085598;28;20043;-68
2023/07/26 11:03:58;;;;;;;4.82;2.47;;;;;;;20.76;81.33;101344.28;5088229;28;20044;-69
2023/07/26 11:06:47;;;;;;;4.03;2.22;;;;;;;20.41;84.06;101346.59;5087066;28;20020;-70
2023/07/26 11:09:42;;;;;;;;;;;;;;;20.28;82.15;101346.56;5087954;28;20067;-65
2023/07/26 11:12:13;;;;;;;3.55;2.33;;;;;;;20.69;80.66;101358.09;5058983;28;19916;-67
2023/07/26 11:14:38;;;;;;;3.40;2.30;;;;;;;21.34;80.22;101350.03;5068735;28;20028;-69
2023/07/26 11:17:11;;;;;;;5.20;2.17;;;;;;;21.86;77.41;101377.72;5087388;28;20028;-69